createdAt,value
2019-02-22T00:01:22.115Z,19.70
2019-02-22T00:03:54.905Z,19.80
2019-02-22T00:06:26.722Z,19.87
2019-02-22T00:08:58.464Z,19.67
2019-02-22T00:11:30.301Z,20.00
2019-02-22T00:14:02.288Z,20.83
2019-02-22T00:16:34.174Z,22.37
2019-02-22T00:19:06.051Z,21.37
2019-02-22T00:21:37.795Z,22.33
2019-02-22T00:24:09.523Z,22.27
2019-02-22T00:26:41.340Z,23.33
2019-02-22T00:29:13.080Z,23.87
2019-02-22T00:31:44.918Z,25.00
2019-02-22T00:34:16.799Z,24.73
2019-02-22T00:36:48.658Z,24.93
2019-02-22T00:39:20.454Z,23.60
2019-02-22T00:41:52.204Z,24.80
2019-02-22T00:44:24.221Z,24.32
2019-02-22T00:46:56.289Z,26.03
2019-02-22T00:49:28.102Z,24.63
2019-02-22T00:52:00.245Z,24.60
2019-02-22T00:54:31.976Z,26.37
2019-02-22T00:57:03.725Z,25.50
2019-02-22T00:59:35.535Z,26.23
2019-02-22T01:02:07.270Z,26.07
2019-02-22T01:04:39.025Z,26.00
2019-02-22T01:07:10.821Z,25.80
2019-02-22T01:09:42.631Z,26.53
2019-02-22T01:12:14.379Z,24.40
2019-02-22T01:14:46.198Z,23.47
2019-02-22T01:17:17.941Z,23.80
2019-02-22T01:19:49.934Z,23.50
2019-02-22T01:22:21.765Z,24.10
2019-02-22T01:24:53.567Z,23.98
2019-02-22T01:27:25.450Z,23.47
2019-02-22T01:29:57.452Z,24.47
2019-02-22T01:32:29.267Z,23.87
2019-02-22T01:35:01.075Z,23.57
2019-02-22T01:37:32.814Z,25.00
2019-02-22T01:40:06.233Z,22.90
2019-02-22T01:42:38.074Z,25.33
2019-02-22T01:45:10.029Z,22.60
2019-02-22T01:47:41.851Z,24.77
2019-02-22T01:50:24.053Z,24.73
2019-02-22T01:52:55.856Z,22.43
2019-02-22T01:55:27.859Z,19.67
2019-02-22T01:57:59.678Z,23.20
2019-02-22T02:00:31.479Z,24.80
2019-02-22T02:03:03.491Z,24.00
2019-02-22T02:05:35.215Z,22.20
2019-02-22T02:08:07.114Z,24.90
2019-02-22T02:10:38.851Z,22.70
2019-02-22T02:13:10.665Z,25.93
2019-02-22T02:15:42.558Z,24.17
2019-02-22T02:18:14.381Z,24.63
2019-02-22T02:20:46.295Z,24.73
2019-02-22T02:23:18.140Z,23.00
2019-02-22T02:25:49.964Z,24.97
2019-02-22T02:28:21.780Z,24.67
2019-02-22T02:30:53.583Z,24.87
2019-02-22T02:33:25.410Z,24.95
2019-02-22T02:35:57.398Z,25.10
2019-02-22T02:38:29.217Z,22.97
2019-02-22T02:41:10.073Z,23.40
2019-02-22T02:43:34.380Z,24.67
2019-02-22T02:46:06.349Z,24.53
2019-02-22T02:48:38.170Z,22.50
2019-02-22T02:51:10.050Z,25.47
2019-02-22T02:53:41.787Z,25.93
2019-02-22T02:56:13.532Z,24.17
2019-02-22T02:58:45.288Z,16.97
2019-02-22T03:01:17.100Z,21.67
2019-02-22T03:03:48.834Z,26.20
2019-02-22T03:06:30.884Z,24.57
2019-02-22T03:09:02.626Z,25.60
2019-02-22T03:11:36.058Z,18.00
2019-02-22T03:14:09.134Z,23.27
2019-02-22T03:16:40.879Z,27.45
2019-02-22T03:19:12.643Z,25.83
2019-02-22T03:21:45.372Z,26.00
2019-02-22T03:24:17.142Z,24.37
2019-02-22T03:26:48.887Z,23.60
2019-02-22T03:29:20.641Z,23.15
2019-02-22T03:31:52.399Z,23.93
2019-02-22T03:34:24.571Z,22.80
2019-02-22T03:36:56.331Z,25.50
2019-02-22T03:39:28.415Z,22.93
2019-02-22T03:42:00.162Z,24.63
2019-02-22T03:44:31.924Z,21.10
2019-02-22T03:47:03.680Z,22.60
2019-02-22T03:49:35.518Z,22.37
2019-02-22T03:52:41.384Z,23.35
2019-02-22T03:55:13.217Z,23.63
2019-02-22T03:57:45.429Z,26.17
2019-02-22T04:00:17.222Z,25.50
2019-02-22T04:02:49.398Z,24.92
2019-02-22T04:05:21.412Z,23.57
2019-02-22T04:07:53.174Z,24.53
2019-02-22T04:10:28.226Z,25.10
2019-02-22T04:13:00.269Z,21.80
2019-02-22T04:15:32.085Z,22.53
2019-02-22T04:18:03.922Z,29.17
2019-02-22T04:20:35.664Z,27.40
2019-02-22T04:23:07.423Z,26.47
2019-02-22T04:25:39.181Z,23.77
2019-02-22T04:28:10.938Z,26.97
2019-02-22T04:30:42.691Z,24.63
2019-02-22T04:33:14.447Z,28.87
2019-02-22T04:35:46.197Z,28.70
2019-02-22T04:38:18.928Z,28.00
2019-02-22T04:40:50.682Z,29.90
2019-02-22T04:43:22.449Z,27.85
2019-02-22T04:45:54.205Z,28.03
2019-02-22T04:48:26.317Z,28.87
2019-02-22T04:50:58.135Z,29.80
2019-02-22T04:53:29.908Z,28.43
2019-02-22T04:56:01.745Z,27.17
2019-02-22T04:58:33.755Z,28.90
2019-02-22T05:01:05.733Z,29.52
2019-02-22T05:03:38.815Z,28.40
2019-02-22T05:06:10.572Z,25.17
2019-02-22T05:08:42.414Z,27.93
2019-02-22T05:11:14.319Z,27.52
2019-02-22T05:13:46.337Z,29.90
2019-02-22T05:16:19.314Z,30.73
2019-02-22T05:18:51.075Z,28.80
2019-02-22T05:21:22.902Z,31.53
2019-02-22T05:23:54.732Z,29.23
2019-02-22T05:26:26.638Z,30.27
2019-02-22T05:28:58.390Z,29.73
2019-02-22T05:31:30.216Z,28.57
2019-02-22T05:34:01.978Z,27.17
2019-02-22T05:36:33.906Z,30.43
2019-02-22T05:39:18.692Z,30.47
2019-02-22T05:41:40.436Z,26.87
2019-02-22T05:44:12.210Z,25.37
2019-02-22T05:46:43.976Z,31.33
2019-02-22T05:49:15.770Z,29.35
2019-02-22T05:51:47.515Z,29.00
2019-02-22T05:54:19.374Z,31.60
2019-02-22T05:56:51.118Z,30.43
2019-02-22T05:59:22.884Z,26.15
2019-02-22T06:01:54.631Z,30.97
2019-02-22T06:04:26.409Z,30.50
2019-02-22T06:06:58.436Z,31.03
2019-02-22T06:09:30.197Z,28.97
2019-02-22T06:12:01.965Z,31.67
2019-02-22T06:14:33.726Z,29.83
2019-02-22T06:17:14.281Z,27.93
2019-02-22T06:19:39.034Z,28.70
2019-02-22T06:22:10.786Z,32.90
2019-02-22T06:24:42.544Z,31.17
2019-02-22T06:27:14.378Z,30.72
2019-02-22T06:29:46.144Z,28.57
2019-02-22T06:32:17.966Z,30.00
2019-02-22T06:34:49.804Z,33.03
2019-02-22T06:37:21.638Z,25.12
2019-02-22T06:39:53.406Z,32.47
2019-02-22T06:42:25.232Z,31.20
2019-02-22T06:44:57.070Z,30.53
2019-02-22T06:47:28.891Z,30.53
2019-02-22T06:50:00.665Z,30.67
2019-02-22T06:52:32.411Z,28.53
2019-02-22T06:55:04.514Z,28.57
2019-02-22T06:57:36.267Z,31.57
2019-02-22T07:00:09.466Z,30.90
2019-02-22T07:02:41.301Z,29.30
2019-02-22T07:05:13.211Z,30.60
2019-02-22T07:07:44.950Z,29.73
2019-02-22T07:10:16.797Z,30.72
2019-02-22T07:12:56.876Z,30.40
2019-02-22T07:15:29.711Z,29.07
2019-02-22T07:18:01.517Z,29.50
2019-02-22T07:20:33.274Z,29.37
2019-02-22T07:23:06.636Z,29.90
2019-02-22T07:25:38.404Z,29.50
2019-02-22T07:28:10.164Z,29.20
2019-02-22T07:30:41.922Z,28.90
2019-02-22T07:33:13.702Z,29.97
2019-02-22T07:35:45.870Z,27.33
2019-02-22T07:38:17.967Z,29.55
2019-02-22T07:40:49.722Z,26.63
2019-02-22T07:43:21.470Z,28.60
2019-02-22T07:45:53.245Z,22.73
2019-02-22T07:48:25.013Z,27.87
2019-02-22T07:50:58.366Z,28.73
2019-02-22T07:53:30.375Z,26.63
2019-02-22T07:56:02.447Z,29.47
2019-02-22T07:58:34.268Z,30.40
2019-02-22T08:01:06.556Z,30.27
2019-02-22T08:03:38.308Z,29.57
2019-02-22T08:06:10.140Z,29.83
2019-02-22T08:08:41.888Z,27.27
2019-02-22T08:11:13.973Z,26.87
2019-02-22T08:13:46.781Z,28.00
2019-02-22T08:16:18.896Z,28.42
2019-02-22T08:19:00.896Z,28.77
2019-02-22T08:21:24.521Z,31.73
2019-02-22T08:23:56.693Z,32.00
2019-02-22T08:26:28.835Z,29.33
2019-02-22T08:29:00.569Z,27.63
2019-02-22T08:31:32.640Z,24.17
2019-02-22T08:34:06.117Z,27.13
2019-02-22T08:36:45.021Z,27.90
2019-02-22T08:39:16.764Z,28.60
2019-02-22T08:41:48.530Z,29.33
2019-02-22T08:44:20.618Z,28.12
2019-02-22T08:46:52.786Z,30.17
2019-02-22T08:49:24.893Z,31.97
2019-02-22T08:51:56.913Z,31.95
2019-02-22T08:54:28.672Z,24.93
2019-02-22T08:57:00.512Z,29.00
2019-02-22T08:59:32.328Z,30.20
2019-02-22T09:02:04.160Z,28.47
2019-02-22T09:04:35.985Z,28.50
2019-02-22T09:07:09.894Z,26.50
2019-02-22T09:09:41.714Z,22.90
2019-02-22T09:12:13.563Z,25.93
2019-02-22T09:14:45.383Z,25.70
2019-02-22T09:17:17.152Z,26.43
2019-02-22T09:19:49.081Z,26.80
2019-02-22T09:22:23.194Z,23.55
2019-02-22T09:24:54.684Z,23.20
2019-02-22T09:27:26.770Z,23.57
2019-02-22T09:29:59.283Z,20.67
2019-02-22T09:32:31.117Z,20.03
2019-02-22T09:35:02.864Z,21.03
2019-02-22T09:37:34.624Z,20.17
2019-02-22T09:40:08.194Z,17.87
2019-02-22T09:42:40.027Z,20.03
2019-02-22T09:45:12.375Z,20.43
2019-02-22T09:47:44.218Z,18.20
2019-02-22T09:50:16.142Z,17.95
2019-02-22T09:52:48.086Z,18.40
2019-02-22T09:55:19.914Z,16.33
2019-02-22T09:57:51.680Z,14.60
2019-02-22T10:00:23.508Z,16.07
2019-02-22T10:02:55.270Z,15.53
2019-02-22T10:05:27.133Z,19.00
2019-02-22T10:07:58.897Z,19.40
2019-02-22T10:10:31.071Z,14.00
2019-02-22T10:13:02.829Z,14.33
2019-02-22T10:15:34.589Z,14.10
2019-02-22T10:18:06.749Z,11.83
2019-02-22T10:20:38.502Z,12.83
2019-02-22T10:23:10.371Z,25.90
2019-02-22T10:25:42.197Z,12.03
2019-02-22T10:28:17.891Z,10.72
2019-02-22T10:30:48.026Z,11.63
2019-02-22T10:33:36.916Z,11.35
2019-02-22T10:36:14.006Z,12.17
2019-02-22T10:38:45.771Z,10.80
2019-02-22T10:41:17.710Z,11.15
2019-02-22T10:43:49.693Z,10.83
2019-02-22T10:46:22.413Z,9.57
2019-02-22T10:48:54.510Z,10.73
2019-02-22T10:51:26.340Z,9.07
2019-02-22T10:53:58.164Z,8.67
2019-02-22T10:56:30.247Z,8.23
2019-02-22T10:59:02.021Z,8.93
2019-02-22T11:01:33.928Z,8.40
2019-02-22T11:04:05.774Z,7.47
2019-02-22T11:06:37.524Z,7.60
2019-02-22T11:09:09.919Z,7.00
2019-02-22T11:11:41.915Z,7.20
2019-02-22T11:14:13.783Z,7.27
2019-02-22T11:16:45.610Z,7.10
2019-02-22T11:19:17.402Z,6.83
2019-02-22T11:21:49.168Z,6.70
2019-02-22T11:24:20.949Z,7.70
2019-02-22T11:26:52.827Z,8.77
2019-02-22T11:29:24.835Z,8.20
2019-02-22T11:31:56.942Z,5.97
2019-02-22T11:34:28.702Z,5.93
2019-02-22T11:37:00.528Z,6.60
2019-02-22T11:39:32.363Z,7.87
2019-02-22T11:42:04.189Z,6.37
2019-02-22T11:44:40.147Z,7.80
2019-02-22T11:47:10.426Z,7.40
2019-02-22T11:49:42.192Z,6.47
2019-02-22T11:52:14.005Z,4.93
2019-02-22T11:54:46.026Z,6.93
2019-02-22T11:57:19.619Z,4.87
2019-02-22T11:59:51.431Z,5.03
2019-02-22T12:02:23.254Z,4.75
2019-02-22T12:04:55.662Z,4.87
2019-02-22T12:07:27.955Z,4.65
2019-02-22T12:09:59.704Z,4.97
2019-02-22T12:12:33.072Z,4.73
2019-02-22T12:15:05.135Z,4.33
2019-02-22T12:17:38.716Z,4.97
2019-02-22T12:20:10.637Z,4.57
2019-02-22T12:22:42.667Z,4.00
2019-02-22T12:25:14.708Z,3.97
2019-02-22T12:27:46.458Z,4.67
2019-02-22T12:30:18.367Z,3.73
2019-02-22T12:32:50.125Z,3.90
2019-02-22T12:35:21.888Z,4.28
2019-02-22T12:37:53.707Z,3.87
2019-02-22T12:40:25.635Z,3.33
2019-02-22T12:42:57.441Z,4.03
2019-02-22T12:45:29.201Z,3.47
2019-02-22T12:48:00.942Z,3.50
2019-02-22T12:50:32.697Z,3.93
2019-02-22T12:53:04.739Z,3.85
2019-02-22T12:55:37.498Z,3.37
2019-02-22T12:58:10.030Z,4.05
2019-02-22T13:00:42.101Z,4.30
2019-02-22T13:03:14.183Z,4.10
2019-02-22T13:05:46.091Z,4.57
2019-02-22T13:08:17.905Z,4.73
2019-02-22T13:10:49.736Z,6.37
2019-02-22T13:13:21.643Z,3.90
2019-02-22T13:15:53.407Z,6.10
2019-02-22T13:18:25.176Z,4.10
2019-02-22T13:20:57.015Z,7.20
2019-02-22T13:23:28.846Z,6.17
2019-02-22T13:26:00.612Z,4.30
2019-02-22T13:28:32.419Z,4.00
2019-02-22T13:31:04.341Z,4.80
2019-02-22T13:33:36.083Z,5.10
2019-02-22T13:36:08.304Z,4.90
2019-02-22T13:38:40.130Z,4.23
2019-02-22T13:41:12.032Z,4.47
2019-02-22T13:43:43.855Z,4.67
2019-02-22T13:46:16.695Z,4.28
2019-02-22T13:48:48.542Z,4.20
2019-02-22T13:51:20.314Z,4.53
2019-02-22T13:53:52.328Z,9.87
2019-02-22T13:56:29.561Z,5.45
2019-02-22T13:58:57.718Z,6.60
2019-02-22T14:01:30.114Z,7.03
2019-02-22T14:04:01.909Z,9.10
2019-02-22T14:06:33.749Z,5.87
2019-02-22T14:09:06.445Z,5.83
2019-02-22T14:11:39.847Z,5.20
2019-02-22T14:14:12.133Z,4.53
2019-02-22T14:16:44.216Z,4.03
2019-02-22T14:19:15.961Z,4.05
2019-02-22T14:21:48.074Z,4.93
2019-02-22T14:24:19.807Z,5.12
2019-02-22T14:26:51.590Z,5.03
2019-02-22T14:29:23.417Z,4.42
2019-02-22T14:31:55.170Z,4.87
2019-02-22T14:34:26.925Z,8.75
2019-02-22T14:36:58.835Z,14.27
2019-02-22T14:39:30.546Z,7.20
2019-02-22T14:42:02.727Z,5.10
2019-02-22T14:44:34.576Z,5.00
2019-02-22T14:47:06.487Z,5.60
2019-02-22T14:49:38.242Z,5.27
2019-02-22T14:52:12.637Z,5.73
2019-02-22T14:54:43.946Z,5.50
2019-02-22T14:57:16.829Z,5.10
2019-02-22T14:59:49.632Z,5.30
2019-02-22T15:02:21.543Z,5.05
2019-02-22T15:04:53.291Z,4.97
2019-02-22T15:07:25.127Z,4.93
2019-02-22T15:09:58.902Z,4.77
2019-02-22T15:12:30.844Z,4.50
2019-02-22T15:15:02.601Z,5.30
2019-02-22T15:17:40.227Z,5.17
2019-02-22T15:20:12.128Z,5.40
2019-02-22T15:22:43.901Z,4.70
2019-02-22T15:25:16.864Z,4.60
2019-02-22T15:27:48.705Z,4.77
2019-02-22T15:30:20.797Z,5.13
2019-02-22T15:32:52.669Z,5.40
2019-02-22T15:35:24.561Z,4.60
2019-02-22T15:37:56.329Z,5.67
2019-02-22T15:40:28.102Z,4.70
2019-02-22T15:42:59.867Z,4.80
2019-02-22T15:45:31.791Z,4.83
2019-02-22T15:48:03.598Z,8.87
2019-02-22T15:50:35.403Z,8.40
2019-02-22T15:53:07.516Z,9.80
2019-02-22T15:55:39.609Z,9.90
2019-02-22T15:58:11.634Z,10.07
2019-02-22T16:00:43.470Z,5.57
2019-02-22T16:03:15.631Z,5.83
2019-02-22T16:05:47.560Z,4.97
2019-02-22T16:08:19.600Z,5.07
2019-02-22T16:10:51.725Z,4.97
2019-02-22T16:13:23.813Z,5.37
2019-02-22T16:15:55.729Z,5.10
2019-02-22T16:18:27.578Z,5.85
2019-02-22T16:20:59.332Z,6.07
2019-02-22T16:23:31.093Z,5.43
2019-02-22T16:26:02.935Z,9.13
2019-02-22T16:28:34.696Z,5.90
2019-02-22T16:31:06.616Z,5.50
2019-02-22T16:33:38.383Z,5.77
2019-02-22T16:36:10.141Z,6.63
2019-02-22T16:38:42.162Z,6.20
2019-02-22T16:41:13.994Z,5.83
2019-02-22T16:43:47.231Z,4.70
2019-02-22T16:46:19.955Z,4.97
2019-02-22T16:48:51.973Z,5.60
2019-02-22T16:51:25.052Z,5.40
2019-02-22T16:53:57.153Z,4.70
2019-02-22T16:56:29.962Z,4.10
2019-02-22T16:59:01.729Z,4.43
2019-02-22T17:01:33.541Z,4.43
2019-02-22T17:04:06.752Z,6.27
2019-02-22T17:06:38.586Z,5.10
2019-02-22T17:09:10.523Z,4.13
2019-02-22T17:11:42.360Z,4.37
2019-02-22T17:14:14.455Z,4.20
2019-02-22T17:16:46.548Z,4.17
2019-02-22T17:19:18.710Z,4.00
2019-02-22T17:21:50.539Z,4.37
2019-02-22T17:24:22.298Z,4.20
2019-02-22T17:26:54.053Z,4.40
2019-02-22T17:29:25.820Z,4.40
2019-02-22T17:31:57.633Z,4.10
2019-02-22T17:34:29.399Z,4.10
2019-02-22T17:37:01.412Z,8.17
2019-02-22T17:39:33.173Z,6.33
2019-02-22T17:42:05.009Z,4.47
2019-02-22T17:44:36.803Z,3.60
2019-02-22T17:47:09.683Z,3.55
2019-02-22T17:49:41.560Z,4.20
2019-02-22T17:52:13.927Z,4.10
2019-02-22T17:54:45.766Z,5.80
2019-02-22T17:57:17.802Z,4.92
2019-02-22T17:59:49.817Z,4.23
2019-02-22T18:02:21.640Z,4.03
2019-02-22T18:04:53.691Z,4.07
2019-02-22T18:07:25.578Z,4.42
2019-02-22T18:09:57.420Z,4.37
2019-02-22T18:12:29.191Z,4.27
2019-02-22T18:15:00.975Z,4.27
2019-02-22T18:17:32.713Z,4.60
2019-02-22T18:20:04.638Z,4.87
2019-02-22T18:22:36.382Z,4.07
2019-02-22T18:25:08.875Z,4.60
2019-02-22T18:27:40.694Z,3.83
2019-02-22T18:30:13.446Z,4.80
2019-02-22T18:32:45.188Z,4.20
2019-02-22T18:35:17.215Z,3.77
2019-02-22T18:37:48.969Z,3.63
2019-02-22T18:40:20.751Z,3.40
2019-02-22T18:42:52.893Z,3.40
2019-02-22T18:45:24.665Z,3.12
2019-02-22T18:47:56.477Z,3.20
2019-02-22T18:50:28.229Z,3.23
2019-02-22T18:52:59.991Z,2.97
2019-02-22T18:55:31.892Z,3.47
2019-02-22T18:58:03.887Z,3.33
2019-02-22T19:00:35.772Z,3.40
2019-02-22T19:03:10.709Z,3.60
2019-02-22T19:05:42.526Z,3.17
2019-02-22T19:08:14.300Z,3.42
2019-02-22T19:10:46.070Z,3.13
2019-02-22T19:13:18.178Z,2.87
2019-02-22T19:15:50.261Z,2.27
2019-02-22T19:18:22.040Z,2.02
2019-02-22T19:20:53.802Z,2.37
2019-02-22T19:23:26.704Z,2.37
2019-02-22T19:25:59.673Z,2.57
2019-02-22T19:28:31.450Z,2.77
2019-02-22T19:31:03.205Z,2.92
2019-02-22T19:33:34.966Z,2.80
2019-02-22T19:36:06.872Z,3.07
2019-02-22T19:38:38.645Z,3.10
2019-02-22T19:41:10.457Z,3.10
2019-02-22T19:43:42.226Z,3.70
2019-02-22T19:46:14.117Z,3.62
2019-02-22T19:48:46.140Z,3.57
2019-02-22T19:51:17.884Z,3.40
2019-02-22T19:53:49.664Z,3.27
2019-02-22T19:56:21.516Z,3.27
2019-02-22T19:58:53.288Z,3.43
2019-02-22T20:01:25.210Z,3.45
2019-02-22T20:03:57.058Z,3.50
2019-02-22T20:06:28.808Z,3.10
2019-02-22T20:09:00.578Z,3.97
2019-02-22T20:11:33.141Z,3.43
2019-02-22T20:14:05.244Z,3.63
2019-02-22T20:16:36.983Z,3.30
2019-02-22T20:19:09.748Z,3.72
2019-02-22T20:21:41.493Z,3.53
2019-02-22T20:24:13.402Z,3.47
2019-02-22T20:26:45.421Z,4.07
2019-02-22T20:29:17.200Z,3.33
2019-02-22T20:31:48.959Z,3.70
2019-02-22T20:34:21.712Z,3.83
2019-02-22T20:36:54.441Z,3.40
2019-02-22T20:39:26.268Z,3.70
2019-02-22T20:41:58.081Z,3.60
2019-02-22T20:44:29.923Z,4.10
2019-02-22T20:47:01.680Z,3.97
2019-02-22T20:49:33.428Z,4.37
2019-02-22T20:52:05.273Z,4.43
2019-02-22T20:54:37.284Z,4.57
2019-02-22T20:57:09.570Z,4.37
2019-02-22T20:59:41.478Z,3.97
2019-02-22T21:02:14.196Z,4.17
2019-02-22T21:04:46.052Z,4.70
2019-02-22T21:07:17.797Z,4.45
2019-02-22T21:09:49.552Z,4.00
2019-02-22T21:12:21.304Z,4.27
2019-02-22T21:14:53.154Z,4.27
2019-02-22T21:17:24.974Z,5.00
2019-02-22T21:19:56.798Z,4.97
2019-02-22T21:22:28.624Z,5.13
2019-02-22T21:25:00.389Z,5.50
2019-02-22T21:27:32.476Z,5.53
2019-02-22T21:30:04.321Z,4.83
2019-02-22T21:32:37.369Z,5.13
2019-02-22T21:35:09.953Z,5.63
2019-02-22T21:37:47.932Z,6.13
2019-02-22T21:40:21.811Z,5.53
2019-02-22T21:42:53.577Z,5.73
2019-02-22T21:45:25.432Z,6.53
2019-02-22T21:47:57.181Z,6.37
2019-02-22T21:50:29.023Z,6.87
2019-02-22T21:53:00.781Z,6.17
2019-02-22T21:55:32.561Z,6.47
2019-02-22T21:58:06.006Z,6.33
2019-02-22T22:00:37.851Z,6.33
2019-02-22T22:03:09.599Z,6.07
2019-02-22T22:05:41.616Z,6.13
2019-02-22T22:08:13.702Z,6.73
2019-02-22T22:10:45.493Z,6.40
2019-02-22T22:13:17.328Z,6.53
2019-02-22T22:15:49.098Z,6.20
2019-02-22T22:18:20.995Z,6.97
2019-02-22T22:20:52.919Z,6.40
2019-02-22T22:23:24.941Z,6.63
2019-02-22T22:25:56.711Z,6.27
2019-02-22T22:28:28.544Z,6.35
2019-02-22T22:31:00.634Z,6.60
2019-02-22T22:33:32.385Z,5.87
2019-02-22T22:36:04.385Z,6.13
2019-02-22T22:38:36.150Z,5.33
2019-02-22T22:41:08.191Z,5.87
2019-02-22T22:43:39.951Z,6.47
2019-02-22T22:46:11.800Z,6.53
2019-02-22T22:48:50.439Z,6.13
2019-02-22T22:51:17.139Z,5.57
2019-02-22T22:53:48.933Z,6.67
2019-02-22T22:56:21.234Z,6.30
2019-02-22T22:58:52.998Z,6.83
2019-02-22T23:01:26.587Z,6.30
2019-02-22T23:03:58.560Z,5.93
2019-02-22T23:06:30.860Z,6.23
2019-02-22T23:09:03.377Z,6.33
2019-02-22T23:11:36.891Z,6.50
2019-02-22T23:14:09.815Z,6.50
2019-02-22T23:16:41.941Z,6.53
2019-02-22T23:19:13.858Z,7.13
2019-02-22T23:21:45.703Z,5.73
2019-02-22T23:24:17.613Z,6.67
2019-02-22T23:26:49.739Z,6.73
2019-02-22T23:29:21.596Z,6.50
2019-02-22T23:31:53.512Z,6.97
2019-02-22T23:34:25.361Z,6.50
2019-02-22T23:36:57.124Z,6.70
2019-02-22T23:39:29.150Z,6.23
2019-02-22T23:42:00.939Z,6.70
2019-02-22T23:44:32.702Z,6.90
2019-02-22T23:47:04.548Z,7.53
2019-02-22T23:49:36.397Z,6.10
2019-02-22T23:52:08.239Z,7.37
2019-02-22T23:54:40.022Z,6.43
2019-02-22T23:57:11.846Z,6.60
2019-02-22T23:59:43.632Z,6.47
